createdAt,value
2019-06-01T00:00:50.862Z,18.82
2019-06-01T00:03:18.616Z,18.74
2019-06-01T00:05:56.629Z,18.68
2019-06-01T00:08:24.466Z,18.63
2019-06-01T00:10:52.290Z,18.61
2019-06-01T00:13:20.067Z,18.57
2019-06-01T00:15:48.345Z,18.54
2019-06-01T00:18:16.347Z,18.52
2019-06-01T00:20:44.352Z,18.50
2019-06-01T00:23:12.301Z,18.48
2019-06-01T00:25:40.409Z,18.43
2019-06-01T00:28:08.239Z,18.38
2019-06-01T00:30:36.103Z,18.32
2019-06-01T00:33:04.090Z,18.28
2019-06-01T00:35:31.778Z,18.24
2019-06-01T00:37:59.554Z,18.17
2019-06-01T00:40:27.242Z,18.13
2019-06-01T00:42:55.106Z,18.11
2019-06-01T00:45:22.798Z,18.09
2019-06-01T00:47:50.946Z,18.07
2019-06-01T00:50:18.790Z,18.07
2019-06-01T00:52:47.179Z,18.06
2019-06-01T00:55:15.307Z,18.08
2019-06-01T00:57:43.506Z,18.06
2019-06-01T01:00:11.715Z,18.04
2019-06-01T01:02:39.458Z,18.01
2019-06-01T01:05:10.697Z,17.97
2019-06-01T01:07:49.037Z,17.95
2019-06-01T01:10:18.336Z,17.86
2019-06-01T01:13:11.024Z,17.82
2019-06-01T01:15:39.025Z,17.73
2019-06-01T01:18:07.592Z,17.74
2019-06-01T01:20:36.472Z,17.72
2019-06-01T01:23:04.527Z,17.71
2019-06-01T01:25:33.146Z,17.70
2019-06-01T01:28:00.978Z,17.70
2019-06-01T01:30:28.796Z,17.70
2019-06-01T01:32:58.972Z,17.69
2019-06-01T01:35:26.611Z,17.69
2019-06-01T01:37:56.554Z,17.67
2019-06-01T01:40:24.322Z,17.67
2019-06-01T01:42:52.395Z,17.67
2019-06-01T01:45:21.055Z,17.66
2019-06-01T01:47:49.446Z,17.66
2019-06-01T01:50:18.270Z,17.66
2019-06-01T01:52:46.103Z,17.66
2019-06-01T01:55:14.070Z,17.64
2019-06-01T01:57:41.855Z,17.65
2019-06-01T02:00:11.607Z,17.63
2019-06-01T02:02:39.422Z,17.58
2019-06-01T02:05:08.185Z,17.55
2019-06-01T02:07:35.938Z,17.57
2019-06-01T02:10:13.959Z,17.54
2019-06-01T02:12:41.771Z,17.53
2019-06-01T02:15:09.726Z,17.54
2019-06-01T02:17:37.482Z,17.48
2019-06-01T02:20:05.764Z,17.40
2019-06-01T02:22:33.958Z,17.37
2019-06-01T02:25:02.215Z,17.43
2019-06-01T02:27:30.042Z,17.48
2019-06-01T02:29:57.779Z,17.51
2019-06-01T02:32:25.507Z,17.53
2019-06-01T02:34:54.328Z,17.55
2019-06-01T02:37:22.165Z,17.55
2019-06-01T02:39:50.436Z,17.56
2019-06-01T02:42:18.437Z,17.58
2019-06-01T02:44:46.413Z,17.57
2019-06-01T02:47:15.317Z,17.58
2019-06-01T02:49:43.060Z,17.57
2019-06-01T02:52:10.874Z,17.54
2019-06-01T02:54:38.651Z,17.43
2019-06-01T02:57:06.466Z,17.45
2019-06-01T02:59:36.292Z,17.49
2019-06-01T03:02:10.088Z,17.50
2019-06-01T03:04:34.036Z,17.52
2019-06-01T03:07:05.120Z,17.53
2019-06-01T03:09:34.479Z,17.53
2019-06-01T03:12:04.322Z,17.54
2019-06-01T03:14:33.528Z,17.53
2019-06-01T03:17:03.873Z,17.54
2019-06-01T03:19:35.457Z,17.56
2019-06-01T03:22:05.689Z,17.56
2019-06-01T03:24:36.674Z,17.59
2019-06-01T03:27:06.320Z,17.59
2019-06-01T03:29:55.446Z,17.62
2019-06-01T03:32:35.142Z,17.65
2019-06-01T03:34:53.385Z,17.65
2019-06-01T03:37:23.428Z,17.67
2019-06-01T03:39:51.213Z,17.68
2019-06-01T03:42:21.500Z,17.69
2019-06-01T03:44:49.178Z,17.72
2019-06-01T03:47:17.182Z,17.74
2019-06-01T03:49:44.897Z,17.76
2019-06-01T03:52:13.069Z,17.77
2019-06-01T03:54:40.927Z,17.78
2019-06-01T03:57:09.209Z,17.78
2019-06-01T03:59:37.033Z,17.81
2019-06-01T04:02:05.102Z,17.83
2019-06-01T04:04:32.868Z,17.85
2019-06-01T04:07:01.247Z,17.85
2019-06-01T04:09:29.247Z,17.88
2019-06-01T04:11:57.641Z,17.91
2019-06-01T04:14:25.468Z,17.93
2019-06-01T04:16:53.206Z,17.96
2019-06-01T04:19:21.824Z,17.98
2019-06-01T04:21:49.709Z,18.01
2019-06-01T04:24:17.492Z,17.97
2019-06-01T04:26:45.263Z,17.97
2019-06-01T04:29:13.019Z,17.94
2019-06-01T04:31:40.964Z,17.97
2019-06-01T04:34:08.846Z,17.97
2019-06-01T04:36:36.772Z,18.02
2019-06-01T04:39:07.343Z,18.06
2019-06-01T04:41:35.141Z,18.09
2019-06-01T04:44:03.775Z,18.16
2019-06-01T04:46:31.571Z,18.15
2019-06-01T04:49:00.151Z,18.21
2019-06-01T04:51:27.846Z,18.29
2019-06-01T04:53:55.615Z,18.28
2019-06-01T04:56:23.354Z,18.32
2019-06-01T04:58:51.082Z,18.32
2019-06-01T05:01:18.759Z,18.46
2019-06-01T05:03:46.513Z,18.49
2019-06-01T05:06:15.480Z,18.53
2019-06-01T05:08:43.444Z,18.53
2019-06-01T05:11:11.815Z,18.52
2019-06-01T05:13:39.694Z,18.50
2019-06-01T05:16:07.911Z,18.50
2019-06-01T05:18:35.716Z,18.51
2019-06-01T05:21:03.590Z,18.59
2019-06-01T05:23:31.348Z,18.64
2019-06-01T05:25:59.166Z,18.66
2019-06-01T05:28:26.898Z,18.67
2019-06-01T05:30:54.661Z,18.70
2019-06-01T05:33:36.541Z,18.77
2019-06-01T05:35:52.309Z,18.84
2019-06-01T05:38:20.089Z,18.86
2019-06-01T05:40:47.924Z,18.86
2019-06-01T05:43:18.090Z,18.88
2019-06-01T05:45:45.413Z,18.93
2019-06-01T05:48:22.910Z,19.02
2019-06-01T05:50:47.926Z,19.04
2019-06-01T05:53:16.749Z,19.13
2019-06-01T05:55:44.624Z,19.21
2019-06-01T05:58:13.011Z,19.24
2019-06-01T06:00:42.210Z,19.31
2019-06-01T06:03:12.893Z,19.37
2019-06-01T06:05:39.801Z,19.45
2019-06-01T06:08:08.260Z,19.52
2019-06-01T06:10:36.183Z,19.60
2019-06-01T06:13:04.104Z,19.62
2019-06-01T06:15:31.852Z,19.70
2019-06-01T06:17:59.568Z,19.78
2019-06-01T06:20:27.410Z,19.83
2019-06-01T06:22:55.922Z,19.87
2019-06-01T06:25:28.218Z,19.98
2019-06-01T06:27:54.016Z,20.08
2019-06-01T06:30:21.803Z,20.18
2019-06-01T06:32:49.979Z,20.19
2019-06-01T06:35:17.848Z,20.24
2019-06-01T06:37:45.546Z,20.32
2019-06-01T06:40:14.947Z,20.31
2019-06-01T06:42:43.723Z,20.40
2019-06-01T06:45:12.460Z,20.47
2019-06-01T06:47:40.849Z,20.45
2019-06-01T06:50:14.628Z,20.40
2019-06-01T06:52:41.879Z,20.56
2019-06-01T06:55:09.852Z,20.69
2019-06-01T06:57:37.620Z,20.83
2019-06-01T07:00:05.776Z,20.89
2019-06-01T07:02:33.593Z,20.97
2019-06-01T07:05:01.469Z,21.15
2019-06-01T07:07:29.260Z,21.30
2019-06-01T07:09:57.812Z,21.50
2019-06-01T07:12:25.529Z,21.67
2019-06-01T07:14:53.302Z,21.63
2019-06-01T07:17:23.533Z,21.71
2019-06-01T07:19:51.513Z,21.65
2019-06-01T07:22:19.905Z,21.83
2019-06-01T07:24:47.901Z,22.00
2019-06-01T07:27:15.570Z,22.10
2019-06-01T07:29:43.258Z,22.18
2019-06-01T07:32:11.037Z,22.14
2019-06-01T07:34:42.036Z,22.29
2019-06-01T07:37:08.756Z,22.47
2019-06-01T07:39:36.708Z,22.49
2019-06-01T07:42:07.442Z,22.50
2019-06-01T07:44:35.833Z,22.40
2019-06-01T07:47:03.677Z,22.52
2019-06-01T07:49:31.514Z,22.65
2019-06-01T07:52:11.760Z,22.72
2019-06-01T07:54:28.946Z,22.93
2019-06-01T07:56:57.751Z,23.01
2019-06-01T07:59:26.356Z,23.07
2019-06-01T08:01:54.662Z,23.13
2019-06-01T08:04:24.660Z,23.29
2019-06-01T08:06:52.799Z,23.51
2019-06-01T08:09:22.020Z,23.57
2019-06-01T08:11:50.325Z,23.82
2019-06-01T08:14:18.271Z,23.90
2019-06-01T08:16:54.901Z,23.96
2019-06-01T08:19:23.856Z,24.05
2019-06-01T08:21:51.768Z,23.90
2019-06-01T08:24:19.654Z,23.95
2019-06-01T08:26:47.573Z,24.05
2019-06-01T08:29:15.296Z,24.20
2019-06-01T08:31:43.179Z,24.25
2019-06-01T08:34:11.044Z,24.30
2019-06-01T08:36:38.889Z,24.65
2019-06-01T08:39:06.846Z,24.88
2019-06-01T08:41:34.685Z,24.91
2019-06-01T08:44:03.812Z,24.68
2019-06-01T08:46:31.785Z,24.88
2019-06-01T08:48:59.552Z,25.01
2019-06-01T08:51:39.546Z,24.98
2019-06-01T08:54:07.348Z,25.01
2019-06-01T08:56:35.107Z,25.12
2019-06-01T08:59:03.061Z,24.75
2019-06-01T09:01:36.195Z,25.11
2019-06-01T09:04:04.593Z,25.23
2019-06-01T09:06:33.250Z,25.59
2019-06-01T09:09:01.126Z,25.49
2019-06-01T09:11:29.308Z,25.67
2019-06-01T09:13:57.718Z,25.74
2019-06-01T09:16:25.627Z,25.98
2019-06-01T09:18:53.375Z,26.25
2019-06-01T09:21:21.218Z,26.49
2019-06-01T09:23:48.900Z,26.76
2019-06-01T09:26:16.664Z,27.01
2019-06-01T09:28:44.591Z,27.18
2019-06-01T09:31:13.409Z,27.29
2019-06-01T09:33:41.122Z,27.41
2019-06-01T09:36:09.714Z,27.40
2019-06-01T09:38:37.893Z,27.46
2019-06-01T09:41:05.663Z,27.70
2019-06-01T09:43:33.505Z,27.35
2019-06-01T09:46:01.206Z,27.64
2019-06-01T09:48:29.395Z,27.05
2019-06-01T09:50:57.151Z,27.19
2019-06-01T09:53:24.898Z,26.89
2019-06-01T09:55:52.733Z,27.30
2019-06-01T09:58:20.588Z,27.75
2019-06-01T10:00:48.685Z,27.90
2019-06-01T10:03:22.653Z,27.66
2019-06-01T10:06:01.561Z,28.07
2019-06-01T10:08:20.074Z,27.76
2019-06-01T10:10:47.849Z,28.20
2019-06-01T10:13:15.763Z,28.47
2019-06-01T10:15:43.474Z,28.78
2019-06-01T10:18:11.248Z,29.05
2019-06-01T10:20:39.271Z,28.98
2019-06-01T10:23:07.513Z,29.11
2019-06-01T10:25:36.482Z,29.09
2019-06-01T10:28:04.394Z,29.53
2019-06-01T10:30:32.221Z,29.67
2019-06-01T10:33:00.963Z,29.28
2019-06-01T10:35:30.722Z,29.38
2019-06-01T10:37:58.587Z,29.36
2019-06-01T10:40:27.004Z,29.56
2019-06-01T10:42:54.737Z,29.58
2019-06-01T10:45:22.511Z,30.07
2019-06-01T10:47:50.491Z,29.84
2019-06-01T10:50:18.398Z,30.03
2019-06-01T10:52:46.248Z,30.33
2019-06-01T10:55:14.755Z,30.63
2019-06-01T10:57:42.840Z,30.81
2019-06-01T11:00:12.063Z,30.84
2019-06-01T11:02:40.812Z,31.24
2019-06-01T11:05:15.936Z,31.44
2019-06-01T11:07:43.727Z,31.13
2019-06-01T11:10:13.242Z,31.36
2019-06-01T11:12:41.248Z,30.74
2019-06-01T11:15:09.440Z,30.30
2019-06-01T11:17:37.393Z,30.13
2019-06-01T11:20:08.962Z,30.27
2019-06-01T11:22:37.564Z,30.31
2019-06-01T11:25:06.381Z,30.11
2019-06-01T11:27:35.616Z,29.77
2019-06-01T11:30:04.925Z,29.46
2019-06-01T11:32:33.681Z,29.48
2019-06-01T11:35:01.789Z,29.45
2019-06-01T11:37:29.522Z,29.43
2019-06-01T11:39:57.581Z,29.49
2019-06-01T11:42:25.303Z,29.31
2019-06-01T11:44:53.080Z,29.03
2019-06-01T11:47:20.793Z,29.17
2019-06-01T11:49:48.679Z,29.26
2019-06-01T11:52:16.413Z,29.22
2019-06-01T11:54:45.469Z,29.34
2019-06-01T11:57:13.601Z,29.09
2019-06-01T11:59:41.659Z,29.15
2019-06-01T12:02:09.510Z,29.35
2019-06-01T12:04:37.837Z,29.67
2019-06-01T12:07:17.597Z,29.72
2019-06-01T12:09:37.836Z,29.72
2019-06-01T12:12:05.640Z,29.67
2019-06-01T12:14:34.190Z,29.84
2019-06-01T12:17:02.326Z,29.77
2019-06-01T12:19:30.689Z,29.34
2019-06-01T12:21:58.409Z,29.49
2019-06-01T12:24:26.202Z,29.83
2019-06-01T12:26:54.061Z,29.80
2019-06-01T12:29:22.719Z,30.18
2019-06-01T12:31:50.391Z,29.77
2019-06-01T12:34:18.237Z,30.16
2019-06-01T12:36:46.410Z,30.77
2019-06-01T12:39:14.342Z,30.99
2019-06-01T12:41:43.443Z,31.25
2019-06-01T12:44:14.876Z,31.24
2019-06-01T12:46:43.844Z,31.29
2019-06-01T12:49:11.840Z,31.69
2019-06-01T12:51:40.554Z,31.92
2019-06-01T12:54:08.826Z,32.15
2019-06-01T12:56:36.553Z,32.15
2019-06-01T12:59:04.932Z,32.50
2019-06-01T13:01:32.763Z,32.66
2019-06-01T13:04:01.464Z,32.47
2019-06-01T13:06:29.298Z,32.08
2019-06-01T13:08:57.080Z,31.93
2019-06-01T13:11:24.887Z,31.83
2019-06-01T13:13:52.762Z,31.60
2019-06-01T13:16:20.562Z,31.36
2019-06-01T13:18:49.510Z,31.09
2019-06-01T13:21:17.472Z,31.04
2019-06-01T13:23:45.448Z,31.08
2019-06-01T13:26:13.262Z,30.48
2019-06-01T13:28:48.354Z,29.97
2019-06-01T13:31:27.395Z,29.72
2019-06-01T13:33:55.261Z,29.46
2019-06-01T13:36:23.471Z,29.63
2019-06-01T13:38:51.180Z,29.88
2019-06-01T13:41:18.929Z,29.92
2019-06-01T13:43:47.258Z,30.08
2019-06-01T13:46:15.232Z,30.23
2019-06-01T13:48:43.554Z,30.07
2019-06-01T13:51:11.573Z,30.15
2019-06-01T13:53:39.511Z,30.45
2019-06-01T13:56:07.357Z,30.81
2019-06-01T13:58:35.149Z,31.18
2019-06-01T14:01:03.406Z,31.31
2019-06-01T14:03:31.239Z,31.36
2019-06-01T14:06:01.067Z,31.06
2019-06-01T14:08:31.238Z,31.02
2019-06-01T14:11:00.091Z,31.02
2019-06-01T14:13:28.489Z,31.07
2019-06-01T14:15:56.347Z,31.00
2019-06-01T14:18:24.059Z,30.75
2019-06-01T14:20:51.856Z,30.72
2019-06-01T14:23:19.812Z,30.17
2019-06-01T14:25:50.095Z,30.58
2019-06-01T14:28:17.910Z,30.41
2019-06-01T14:30:46.144Z,30.35
2019-06-01T14:33:13.967Z,30.43
2019-06-01T14:35:41.788Z,30.33
2019-06-01T14:38:10.290Z,30.39
2019-06-01T14:40:41.302Z,30.31
2019-06-01T14:43:07.710Z,30.11
2019-06-01T14:45:35.558Z,30.16
2019-06-01T14:48:03.455Z,30.46
2019-06-01T14:50:31.343Z,30.68
2019-06-01T14:52:59.079Z,30.23
2019-06-01T14:55:26.921Z,29.91
2019-06-01T14:57:55.915Z,29.89
2019-06-01T15:00:25.205Z,30.17
2019-06-01T15:02:54.325Z,29.87
2019-06-01T15:05:22.420Z,29.65
2019-06-01T15:07:50.244Z,29.92
2019-06-01T15:10:18.213Z,29.97
2019-06-01T15:12:52.493Z,29.35
2019-06-01T15:15:17.131Z,29.23
2019-06-01T15:17:44.867Z,29.33
2019-06-01T15:20:12.804Z,29.71
2019-06-01T15:22:40.706Z,30.01
2019-06-01T15:25:09.234Z,30.29
2019-06-01T15:27:37.252Z,30.59
2019-06-01T15:30:05.782Z,30.67
2019-06-01T15:32:33.661Z,30.29
2019-06-01T15:35:03.113Z,30.17
2019-06-01T15:37:31.318Z,30.61
2019-06-01T15:39:59.051Z,30.69
2019-06-01T15:42:26.821Z,30.83
2019-06-01T15:44:55.076Z,30.86
2019-06-01T15:47:24.273Z,30.81
2019-06-01T15:49:51.954Z,31.06
2019-06-01T15:52:19.719Z,31.15
2019-06-01T15:54:48.347Z,31.19
2019-06-01T15:57:16.206Z,31.35
2019-06-01T15:59:43.933Z,31.44
2019-06-01T16:02:11.728Z,31.42
2019-06-01T16:04:39.555Z,31.47
2019-06-01T16:07:08.050Z,31.54
2019-06-01T16:09:42.806Z,31.47
2019-06-01T16:12:05.700Z,31.50
2019-06-01T16:14:33.624Z,31.53
2019-06-01T16:17:02.928Z,31.40
2019-06-01T16:19:31.307Z,31.49
2019-06-01T16:22:00.306Z,31.36
2019-06-01T16:24:28.219Z,31.26
2019-06-01T16:26:56.357Z,31.19
2019-06-01T16:29:24.249Z,31.12
2019-06-01T16:31:52.073Z,31.07
2019-06-01T16:34:20.404Z,31.05
2019-06-01T16:36:48.282Z,31.13
2019-06-01T16:39:16.010Z,30.99
2019-06-01T16:41:44.262Z,30.82
2019-06-01T16:44:12.429Z,30.41
2019-06-01T16:46:40.233Z,30.38
2019-06-01T16:49:07.956Z,30.46
2019-06-01T16:51:52.309Z,30.52
2019-06-01T16:54:20.251Z,30.54
2019-06-01T16:56:48.161Z,30.54
2019-06-01T16:59:15.997Z,30.35
2019-06-01T17:01:43.834Z,30.34
2019-06-01T17:04:12.599Z,30.36
2019-06-01T17:06:41.095Z,30.33
2019-06-01T17:09:09.544Z,30.26
2019-06-01T17:11:37.476Z,30.26
2019-06-01T17:14:06.965Z,30.25
2019-06-01T17:16:35.201Z,30.23
2019-06-01T17:19:03.138Z,30.14
2019-06-01T17:21:31.034Z,30.07
2019-06-01T17:23:59.456Z,29.92
2019-06-01T17:26:27.471Z,29.85
2019-06-01T17:28:55.379Z,29.67
2019-06-01T17:31:23.192Z,29.73
2019-06-01T17:33:51.194Z,29.55
2019-06-01T17:36:19.250Z,29.53
2019-06-01T17:38:47.137Z,29.49
2019-06-01T17:41:15.073Z,29.43
2019-06-01T17:43:43.019Z,29.37
2019-06-01T17:46:11.956Z,29.32
2019-06-01T17:48:40.214Z,29.27
2019-06-01T17:51:08.624Z,29.11
2019-06-01T17:53:36.657Z,29.05
2019-06-01T17:56:04.508Z,29.03
2019-06-01T17:58:33.006Z,28.93
2019-06-01T18:01:01.862Z,28.85
2019-06-01T18:03:29.992Z,28.77
2019-06-01T18:05:57.811Z,28.71
2019-06-01T18:08:25.588Z,28.63
2019-06-01T18:10:55.033Z,28.55
2019-06-01T18:13:23.193Z,28.51
2019-06-01T18:15:50.981Z,28.41
2019-06-01T18:18:18.901Z,28.37
2019-06-01T18:20:46.922Z,28.28
2019-06-01T18:23:14.809Z,28.20
2019-06-01T18:25:43.008Z,28.07
2019-06-01T18:28:17.130Z,27.99
2019-06-01T18:30:40.803Z,27.89
2019-06-01T18:33:09.071Z,27.87
2019-06-01T18:35:37.543Z,27.75
2019-06-01T18:38:05.879Z,27.67
2019-06-01T18:40:33.923Z,27.57
2019-06-01T18:43:05.954Z,27.53
2019-06-01T18:45:34.708Z,27.46
2019-06-01T18:48:03.602Z,27.41
2019-06-01T18:50:33.421Z,27.30
2019-06-01T18:53:01.318Z,27.27
2019-06-01T18:55:29.088Z,27.21
2019-06-01T18:58:00.445Z,27.12
2019-06-01T19:00:28.406Z,27.04
2019-06-01T19:02:56.285Z,26.95
2019-06-01T19:05:24.000Z,26.73
2019-06-01T19:07:51.818Z,26.59
2019-06-01T19:10:19.781Z,26.52
2019-06-01T19:12:47.847Z,26.45
2019-06-01T19:15:27.505Z,26.34
2019-06-01T19:17:46.444Z,26.27
2019-06-01T19:20:16.957Z,26.15
2019-06-01T19:22:44.879Z,26.05
2019-06-01T19:25:14.993Z,25.92
2019-06-01T19:27:42.748Z,25.89
2019-06-01T19:30:10.995Z,25.81
2019-06-01T19:32:39.127Z,25.64
2019-06-01T19:35:07.640Z,25.69
2019-06-01T19:37:39.085Z,25.68
2019-06-01T19:40:07.274Z,25.70
2019-06-01T19:42:35.001Z,25.65
2019-06-01T19:45:03.191Z,25.61
2019-06-01T19:47:31.256Z,25.58
2019-06-01T19:49:59.151Z,25.53
2019-06-01T19:52:29.147Z,25.48
2019-06-01T19:54:57.092Z,25.45
2019-06-01T19:57:24.825Z,25.40
2019-06-01T19:59:52.559Z,25.37
2019-06-01T20:02:32.830Z,25.33
2019-06-01T20:04:50.766Z,25.30
2019-06-01T20:07:19.299Z,25.24
2019-06-01T20:09:47.209Z,25.21
2019-06-01T20:12:17.139Z,25.19
2019-06-01T20:14:44.660Z,25.14
2019-06-01T20:17:13.485Z,25.10
2019-06-01T20:19:41.413Z,25.03
2019-06-01T20:22:09.115Z,24.98
2019-06-01T20:24:36.865Z,24.91
2019-06-01T20:27:05.055Z,24.84
2019-06-01T20:29:32.791Z,24.78
2019-06-01T20:32:00.590Z,24.64
2019-06-01T20:34:28.359Z,24.53
2019-06-01T20:36:56.137Z,24.40
2019-06-01T20:39:24.040Z,24.28
2019-06-01T20:41:51.911Z,24.14
2019-06-01T20:44:20.711Z,24.04
2019-06-01T20:46:48.637Z,23.92
2019-06-01T20:49:16.822Z,23.83
2019-06-01T20:51:44.833Z,23.74
2019-06-01T20:54:13.007Z,23.66
2019-06-01T20:56:50.433Z,23.58
2019-06-01T20:59:20.276Z,23.49
2019-06-01T21:01:47.869Z,23.42
2019-06-01T21:04:16.200Z,23.36
2019-06-01T21:06:43.986Z,23.28
2019-06-01T21:09:11.700Z,23.23
2019-06-01T21:11:39.446Z,23.14
2019-06-01T21:14:07.807Z,23.10
2019-06-01T21:16:35.674Z,23.03
2019-06-01T21:19:03.665Z,22.98
2019-06-01T21:21:31.441Z,22.92
2019-06-01T21:23:59.260Z,22.82
2019-06-01T21:26:27.001Z,22.74
2019-06-01T21:28:54.715Z,22.68
2019-06-01T21:31:23.232Z,22.61
2019-06-01T21:33:51.123Z,22.55
2019-06-01T21:36:19.461Z,22.50
2019-06-01T21:38:47.349Z,22.44
2019-06-01T21:41:15.498Z,22.35
2019-06-01T21:43:43.304Z,22.26
2019-06-01T21:46:11.273Z,22.17
2019-06-01T21:48:38.997Z,22.11
2019-06-01T21:51:06.772Z,22.06
2019-06-01T21:53:34.576Z,22.00
2019-06-01T21:56:02.395Z,21.94
2019-06-01T21:58:30.098Z,21.87
2019-06-01T22:00:57.984Z,21.82
2019-06-01T22:03:27.089Z,21.77
2019-06-01T22:05:55.195Z,21.74
2019-06-01T22:08:23.286Z,21.68
2019-06-01T22:10:51.120Z,21.64
2019-06-01T22:13:22.314Z,21.59
2019-06-01T22:15:48.792Z,21.54
2019-06-01T22:18:17.612Z,21.50
2019-06-01T22:20:45.580Z,21.45
2019-06-01T22:23:13.323Z,21.37
2019-06-01T22:25:41.100Z,21.34
2019-06-01T22:28:08.896Z,21.32
2019-06-01T22:30:36.784Z,21.28
2019-06-01T22:33:04.616Z,21.25
2019-06-01T22:35:33.415Z,21.20
2019-06-01T22:38:01.164Z,21.16
2019-06-01T22:40:29.481Z,21.13
2019-06-01T22:42:57.259Z,21.09
2019-06-01T22:45:25.060Z,21.06
2019-06-01T22:47:52.923Z,21.02
2019-06-01T22:50:20.830Z,21.00
2019-06-01T22:52:48.619Z,20.96
2019-06-01T22:55:16.522Z,20.91
2019-06-01T22:57:44.406Z,20.88
2019-06-01T23:00:17.850Z,20.82
2019-06-01T23:02:45.666Z,20.81
2019-06-01T23:05:13.376Z,20.78
2019-06-01T23:07:41.116Z,20.75
2019-06-01T23:10:09.329Z,20.72
2019-06-01T23:12:37.171Z,20.69
2019-06-01T23:15:05.428Z,20.66
2019-06-01T23:17:33.315Z,20.60
2019-06-01T23:20:01.216Z,20.56
2019-06-01T23:22:30.116Z,20.51
2019-06-01T23:24:57.982Z,20.47
2019-06-01T23:27:26.180Z,20.44
2019-06-01T23:29:54.147Z,20.40
2019-06-01T23:32:22.533Z,20.37
2019-06-01T23:34:50.238Z,20.34
2019-06-01T23:37:17.985Z,20.30
2019-06-01T23:39:45.679Z,20.26
2019-06-01T23:42:13.459Z,20.25
2019-06-01T23:44:41.166Z,20.23
2019-06-01T23:47:08.940Z,20.19
2019-06-01T23:49:36.678Z,20.16
2019-06-01T23:52:04.599Z,20.15
2019-06-01T23:54:33.599Z,20.12
2019-06-01T23:57:01.703Z,20.10
2019-06-01T23:59:30.854Z,20.06
